Time;durP1;ratioP1;P1;durP2;ratioP2;P2;SDS_P1;SDS_P2;PMS_P1;PMS_P2;Temp;Humidity;BMP_temperature;BMP_pressure;BME280_temperature;BME280_humidity;BME280_pressure;Samples;Min_cycle;Max_cycle;Signal;HPM_P1;HPM_P2
2021/04/16 00:01:18;;;;;;;;;;;;;;;3.95;73.82;99934.06;5132976;27;20397;-65
2021/04/16 00:03:59;;;;;;;;;;;;;;;3.96;74.09;99928.19;5132362;27;19932;-65
2021/04/16 00:06:41;;;;;;;;;;;;;;;4.00;74.02;99924.97;5132669;27;20342;-65
2021/04/16 00:09:22;;;;;;;;;;;;;;;4.03;73.69;99919.16;5133396;27;20020;-65
2021/04/16 00:12:04;;;;;;;;;;;;;;;4.03;73.63;99919.16;5133476;27;19916;-65
2021/04/16 00:14:45;;;;;;;;;;;;;;;4.04;74.27;99921.72;5133397;27;20377;-65
2021/04/16 00:17:25;;;;;;;;;;;;;;;4.04;73.98;99921.72;5133396;27;19916;-65
2021/04/16 00:20:08;;;;;;;;;;;;;;;4.07;74.44;99924.31;5132819;27;19941;-65
2021/04/16 00:22:49;;;;;;;;;;;;;;;4.14;73.90;99916.91;5132650;27;19938;-65
2021/04/16 00:25:30;;;;;;;;;;;;;;;4.19;74.23;99920.44;5132594;27;19916;-65
2021/04/16 00:28:11;;;;;;;;;;;;;;;4.22;74.54;99920.53;5133481;27;19936;-65
2021/04/16 00:30:54;;;;;;;;;;;;;;;4.25;74.60;99920.63;5133448;27;20296;-65
2021/04/16 00:33:34;;;;;;;;;;;;;;;4.28;74.06;99923.22;5133423;27;20362;-65
2021/04/16 00:36:16;;;;;;;;;;;;;;;4.31;74.58;99921.63;5133403;27;19942;-65
2021/04/16 00:38:58;;;;;;;;;;;;;;;4.34;74.52;99918.34;5132864;27;19912;-65
2021/04/16 00:41:39;;;;;;;;;;;;;;;4.39;73.88;99924.38;5111813;27;19916;-66
2021/04/16 00:44:19;;;;;;;;;;;;;;;4.41;74.25;99927.78;5133358;27;19916;-65
2021/04/16 00:47:02;;;;;;;;;;;;;;;4.41;74.36;99922.75;5133497;27;19937;-65
2021/04/16 00:49:45;;;;;;;;;;;;;;;4.42;73.62;99915.19;5133463;27;20449;-65
2021/04/16 00:52:28;;;;;;;;;;;;;;;4.43;74.07;99918.59;5132879;27;19932;-65
2021/04/16 00:55:10;;;;;;;;;;;;;;;4.43;74.18;99911.00;5132593;27;19912;-65
2021/04/16 00:57:51;;;;;;;;;;;;;;;4.44;73.88;99907.69;5133494;27;19911;-66
2021/04/16 01:00:33;;;;;;;;;;;;;;;4.44;73.99;99913.56;5133399;27;20373;-65
2021/04/16 01:03:13;;;;;;;;;;;;;;;4.45;73.15;99919.47;5133451;27;20365;-65
2021/04/16 01:05:54;;;;;;;;;;;;;;;4.48;73.50;99919.56;5132812;27;19942;-65
2021/04/16 01:08:35;;;;;;;;;;;;;;;4.49;73.02;99917.06;5132528;27;20388;-65
2021/04/16 01:11:16;;;;;;;;;;;;;;;4.50;73.22;99913.75;5133420;27;20334;-65
2021/04/16 01:13:56;;;;;;;;;;;;;;;4.51;73.08;99919.66;5133424;27;19924;-64
2021/04/16 01:16:36;;;;;;;;;;;;;;;4.53;72.60;99918.03;5133397;27;20365;-65
2021/04/16 01:19:22;;;;;;;;;;;;;;;4.52;72.30;99906.19;5132755;27;20386;-64
2021/04/16 01:22:07;;;;;;;;;;;;;;;4.53;72.64;99903.72;5132522;27;19938;-65
2021/04/16 01:25:00;;;;;;;;;;;;;;;4.52;72.88;99896.09;5132142;27;20434;-65
2021/04/16 01:27:41;;;;;;;;;;;;;;;4.51;72.96;99899.44;5132588;27;19924;-65
2021/04/16 01:30:24;;;;;;;;;;;;;;;4.49;72.73;99906.09;5133354;27;19919;-65
2021/04/16 01:33:05;;;;;;;;;;;;;;;4.48;72.38;99894.31;5133417;27;19916;-65
2021/04/16 01:35:47;;;;;;;;;;;;;;;4.48;72.57;99895.16;5133388;27;20369;-65
2021/04/16 01:38:27;;;;;;;;;;;;;;;4.46;72.81;99895.94;5133419;27;19919;-65
2021/04/16 01:41:09;;;;;;;;;;;;;;;4.44;72.91;99897.56;5133422;27;19916;-65
2021/04/16 01:43:55;;;;;;;;;;;;;;;4.42;72.68;99899.16;5133370;27;20016;-65
2021/04/16 01:46:48;;;;;;;;;;;;;;;4.42;71.96;99899.16;5132761;27;19912;-65
2021/04/16 01:49:29;;;;;;;;;;;;;;;4.39;72.01;99894.06;5133519;27;19937;-65
2021/04/16 01:52:11;;;;;;;;;;;;;;;4.34;72.09;99900.66;5133485;27;19916;-65
2021/04/16 01:54:51;;;;;;;;;;;;;;;4.32;72.43;99892.19;5133485;27;19919;-65
2021/04/16 01:57:33;;;;;;;;;;;;;;;4.31;72.44;99891.31;5133161;27;19916;-65
2021/04/16 02:00:17;;;;;;;;;;;;;;;4.30;71.88;99896.31;5133430;27;19912;-66
2021/04/16 02:02:58;;;;;;;;;;;;;;;4.31;71.78;99892.97;5133466;27;19912;-66
2021/04/16 02:05:39;;;;;;;;;;;;;;;4.31;72.24;99895.50;5133406;27;19941;-65
2021/04/16 02:08:23;;;;;;;;;;;;;;;4.30;71.69;99898.84;5133460;27;19915;-65
2021/04/16 02:11:04;;;;;;;;;;;;;;;4.30;72.41;99898.84;5133432;27;19923;-65
2021/04/16 02:13:44;;;;;;;;;;;;;;;4.31;71.75;99905.63;5132926;27;19984;-65
2021/04/16 02:16:25;;;;;;;;;;;;;;;4.34;72.22;99905.72;5132516;27;19941;-65
2021/04/16 02:19:07;;;;;;;;;;;;;;;4.31;71.96;99900.56;5133459;27;19938;-65
2021/04/16 02:21:46;;;;;;;;;;;;;;;4.32;72.16;99897.22;5137052;27;1648066;-65
2021/04/16 02:24:26;;;;;;;;;;;;;;;4.32;72.29;99897.22;5133405;27;19924;-65
2021/04/16 02:27:08;;;;;;;;;;;;;;;4.32;71.54;99893.00;5133426;27;19937;-65
2021/04/16 02:29:49;;;;;;;;;;;;;;;4.31;71.95;99900.56;5112850;27;20293;-65
2021/04/16 02:32:30;;;;;;;;;;;;;;;4.29;71.85;99892.09;5132398;27;19965;-65
2021/04/16 02:35:13;;;;;;;;;;;;;;;4.31;71.96;99896.38;5133399;27;20466;-65
2021/04/16 02:37:55;;;;;;;;;;;;;;;4.33;71.50;99893.88;5133433;27;20318;-65
2021/04/16 02:40:36;;;;;;;;;;;;;;;4.34;71.86;99893.06;5133241;27;19920;-67
2021/04/16 02:43:19;;;;;;;;;;;;;;;4.34;72.04;99890.56;5133389;27;20361;-65
2021/04/16 02:45:59;;;;;;;;;;;;;;;4.38;71.52;99893.19;5133524;27;19937;-66
2021/04/16 02:48:40;;;;;;;;;;;;;;;4.38;72.13;99890.66;5133368;27;19916;-65
2021/04/16 02:51:22;;;;;;;;;;;;;;;4.39;71.75;99894.06;5133443;27;19916;-65
2021/04/16 02:54:03;;;;;;;;;;;;;;;4.41;71.89;99905.06;5133398;27;19916;-66
2021/04/16 02:56:45;;;;;;;;;;;;;;;4.38;71.98;99898.25;5133362;27;20373;-65
2021/04/16 02:59:24;;;;;;;;;;;;;;;4.38;71.93;99899.91;5133288;27;20024;-64
2021/04/16 03:02:06;;;;;;;;;;;;;;;4.38;72.16;99895.72;5133345;27;19942;-65
2021/04/16 03:04:47;;;;;;;;;;;;;;;4.40;72.34;99898.28;5133469;27;19912;-65
2021/04/16 03:07:27;;;;;;;;;;;;;;;4.43;71.58;99900.91;5133456;27;19943;-65
2021/04/16 03:10:10;;;;;;;;;;;;;;;4.44;72.03;99895.03;5075849;27;19953;-65
2021/04/16 03:12:51;;;;;;;;;;;;;;;4.46;71.88;99895.94;5133473;27;19928;-66
2021/04/16 03:15:32;;;;;;;;;;;;;;;4.43;71.50;99890.78;5133382;27;20446;-65
2021/04/16 03:18:12;;;;;;;;;;;;;;;4.41;72.13;99892.44;5133196;27;20023;-65
2021/04/16 03:20:52;;;;;;;;;;;;;;;4.41;71.91;99890.75;5133423;27;19916;-65
2021/04/16 03:23:34;;;;;;;;;;;;;;;4.44;71.93;99902.63;5133451;27;20012;-65
2021/04/16 03:26:15;;;;;;;;;;;;;;;4.39;71.95;99894.88;5112556;27;19917;-65
2021/04/16 03:28:58;;;;;;;;;;;;;;;4.42;71.75;99904.22;5133363;27;20015;-66
2021/04/16 03:31:38;;;;;;;;;;;;;;;4.41;72.06;99900.88;5133159;27;19912;-65
2021/04/16 03:34:19;;;;;;;;;;;;;;;4.43;71.82;99895.84;5133385;27;19916;-65
2021/04/16 03:37:01;;;;;;;;;;;;;;;4.45;71.89;99899.25;5133384;27;19916;-65
2021/04/16 03:39:42;;;;;;;;;;;;;;;4.46;71.78;99896.75;5133442;27;19920;-65
2021/04/16 03:42:22;;;;;;;;;;;;;;;4.43;72.14;99900.91;5133419;27;19916;-65
2021/04/16 03:45:03;;;;;;;;;;;;;;;4.44;71.67;99892.53;5133239;27;19937;-65
2021/04/16 03:47:45;;;;;;;;;;;;;;;4.43;72.13;99893.31;5132592;27;20020;-65
2021/04/16 03:50:27;;;;;;;;;;;;;;;4.45;71.31;99884.09;5132309;27;19942;-65
2021/04/16 03:53:08;;;;;;;;;;;;;;;4.44;71.57;99888.28;5133437;27;19912;-65
2021/04/16 03:55:49;;;;;;;;;;;;;;;4.42;71.36;99889.06;5132773;27;20397;-65
2021/04/16 03:58:30;;;;;;;;;;;;;;;4.38;71.33;99893.19;5133473;27;19919;-64
2021/04/16 04:01:10;;;;;;;;;;;;;;;4.37;71.70;99895.66;5133390;27;19941;-65
2021/04/16 04:03:51;;;;;;;;;;;;;;;4.36;72.04;99893.97;5133367;27;20327;-65
2021/04/16 04:06:31;;;;;;;;;;;;;;;4.36;71.47;99893.97;5133416;27;19923;-65
2021/04/16 04:09:11;;;;;;;;;;;;;;;4.33;72.12;99889.69;5133411;27;20019;-65
2021/04/16 04:11:52;;;;;;;;;;;;;;;4.33;71.35;99894.75;5133162;27;19937;-65
2021/04/16 04:14:32;;;;;;;;;;;;;;;4.33;71.34;99894.75;5133403;27;19916;-65
2021/04/16 04:17:22;;;;;;;;;;;;;;;4.34;71.44;99898.13;5132822;27;19920;-64
2021/04/16 04:20:04;;;;;;;;;;;;;;;4.35;71.63;99902.34;5133455;27;19911;-65
2021/04/16 04:22:33;;;;;;;;;;;;;;;4.33;71.97;99898.94;5132463;27;19923;-65
2021/04/16 04:25:13;;;;;;;;;;;;;;;4.35;71.29;99902.34;5137390;27;1646562;-64
2021/04/16 04:27:53;;;;;;;;;;;;;;;4.36;71.40;99904.06;5112922;27;19913;-66
2021/04/16 04:30:34;;;;;;;;;;;;;;;4.36;71.72;99899.03;5137044;27;1649938;-65
2021/04/16 04:33:14;;;;;;;;;;;;;;;4.38;71.59;99900.78;5133489;27;19919;-65
2021/04/16 04:35:56;;;;;;;;;;;;;;;4.40;71.52;99909.25;5112001;27;19916;-65
2021/04/16 04:38:35;;;;;;;;;;;;;;;4.44;71.07;99908.50;5133455;27;19923;-65
2021/04/16 04:41:15;;;;;;;;;;;;;;;4.46;71.20;99903.50;5133481;27;19961;-65
2021/04/16 04:43:55;;;;;;;;;;;;;;;4.45;71.32;99909.38;5133422;27;19916;-65
2021/04/16 04:46:37;;;;;;;;;;;;;;;4.46;71.33;99909.41;5133348;27;19941;-64
2021/04/16 04:49:20;;;;;;;;;;;;;;;4.49;71.48;99913.69;5132948;27;19941;-66
2021/04/16 04:52:11;;;;;;;;;;;;;;;4.48;70.76;99910.31;5132701;27;19961;-65
2021/04/16 04:54:53;;;;;;;;;;;;;;;4.51;70.80;99907.03;5132622;27;19919;-65
2021/04/16 04:57:33;;;;;;;;;;;;;;;4.53;70.64;99908.78;5133110;27;19937;-65
2021/04/16 05:00:14;;;;;;;;;;;;;;;4.56;70.81;99916.41;5133153;27;20031;-66
2021/04/16 05:02:54;;;;;;;;;;;;;;;4.60;70.89;99914.84;5133293;27;19912;-66
2021/04/16 05:05:34;;;;;;;;;;;;;;;4.63;70.57;99914.94;5132411;27;19919;-65
2021/04/16 05:08:27;;;;;;;;;;;;;;;4.67;70.75;99910.00;5132837;27;19916;-65
2021/04/16 05:11:11;;;;;;;;;;;;;;;4.71;70.82;99914.31;5133061;27;19932;-65
2021/04/16 05:13:52;;;;;;;;;;;;;;;4.80;70.69;99908.63;5133461;27;19972;-65
2021/04/16 05:16:33;;;;;;;;;;;;;;;4.89;70.69;99908.88;5133366;27;20370;-65
2021/04/16 05:19:15;;;;;;;;;;;;;;;4.92;70.24;99908.94;5133252;27;19941;-65
2021/04/16 05:21:58;;;;;;;;;;;;;;;4.97;70.26;99917.50;5133338;27;19916;-65
2021/04/16 05:24:37;;;;;;;;;;;;;;;4.98;70.25;99911.63;5133432;27;19920;-66
2021/04/16 05:27:21;;;;;;;;;;;;;;;5.04;69.47;99914.28;5112793;27;19916;-65
2021/04/16 05:30:03;;;;;;;;;;;;;;;5.12;69.98;99912.81;5133407;27;19920;-65
2021/04/16 05:32:44;;;;;;;;;;;;;;;5.18;70.01;99910.44;5132487;27;19916;-65
2021/04/16 05:35:24;;;;;;;;;;;;;;;5.25;69.92;99917.38;5132507;27;20343;-65
2021/04/16 05:38:04;;;;;;;;;;;;;;;5.30;69.21;99918.31;5132328;27;19916;-65
2021/04/16 05:40:46;;;;;;;;;;;;;;;5.32;69.24;99916.69;5133334;27;20377;-65
2021/04/16 05:43:27;;;;;;;;;;;;;;;5.36;68.99;99913.41;5133411;27;20020;-65
2021/04/16 05:46:08;;;;;;;;;;;;;;;5.43;68.76;99920.34;5133421;27;19911;-64
2021/04/16 05:48:48;;;;;;;;;;;;;;;5.49;68.41;99916.22;5133376;27;19942;-65
2021/04/16 05:54:37;;;;;;;;;;;;;;;5.65;68.19;99915.75;5049482;28;19932;-72
2021/04/16 05:57:06;;;;;;;;;;;;;;;5.69;68.01;99913.31;5051244;28;19929;-71
2021/04/16 05:59:34;;;;;;;;;;;;;;;5.79;67.95;99917.78;5051937;28;19925;-71
2021/04/16 06:02:20;;;;;;;;;;;;;;;5.84;67.36;99920.41;5051693;28;20036;-71
2021/04/16 06:04:53;;;;;;;;;;;;;;;5.92;67.46;99921.47;5051841;28;20016;-71
2021/04/16 06:07:22;;;;;;;;;;;;;;;5.89;67.09;99922.25;5050282;28;19925;-71
2021/04/16 06:09:56;;;;;;;;;;;;;;;5.89;66.93;99918.84;5051723;28;19925;-71
2021/04/16 06:12:24;;;;;;;;;;;;;;;5.94;66.69;99910.53;5051175;28;19925;-71
2021/04/16 06:14:54;;;;;;;;;;;;;;;6.02;66.15;99919.16;5051655;28;19925;-71
2021/04/16 06:17:22;;;;;;;;;;;;;;;6.13;66.22;99916.84;5051914;28;19925;-71
2021/04/16 06:19:50;;;;;;;;;;;;;;;6.21;66.03;99915.34;5051337;28;19925;-71
2021/04/16 06:22:19;;;;;;;;;;;;;;;6.27;65.54;99914.59;5051103;28;19925;-71
2021/04/16 06:24:50;;;;;;;;;;;;;;;6.37;65.42;99917.34;5050278;28;19929;-71
2021/04/16 06:27:19;;;;;;;;;;;;;;;6.49;65.30;99916.72;5050994;28;19925;-70
2021/04/16 06:29:47;;;;;;;;;;;;;;;6.63;65.13;99913.63;5050002;28;19968;-70
2021/04/16 06:32:16;;;;;;;;;;;;;;;6.77;64.81;99918.09;5050845;28;19933;-71
2021/04/16 06:34:47;;;;;;;;;;;;;;;6.81;64.64;99914.78;5050786;28;20032;-71
2021/04/16 06:37:15;;;;;;;;;;;;;;;6.84;64.63;99918.22;5049580;28;19929;-70
2021/04/16 06:39:43;;;;;;;;;;;;;;;6.95;64.35;99920.97;5049932;28;19928;-71
2021/04/16 06:42:14;;;;;;;;;;;;;;;6.97;63.90;99925.22;5050606;28;19982;-71
2021/04/16 06:44:45;;;;;;;;;;;;;;;7.00;63.78;99932.03;5050682;28;19925;-71
2021/04/16 06:47:20;;;;;;;;;;;;;;;7.00;63.42;99926.97;5050213;28;19929;-71
2021/04/16 06:49:51;;;;;;;;;;;;;;;6.91;62.90;99926.81;5050332;28;20297;-70
2021/04/16 06:52:23;;;;;;;;;;;;;;;6.95;62.94;99928.56;5057138;28;19955;-70
2021/04/16 06:54:53;;;;;;;;;;;;;;;6.98;62.84;99933.69;5090564;28;20381;-70
2021/04/16 06:57:25;;;;;;;;;;;;;;;6.98;62.97;99933.69;5090418;28;20362;-72
2021/04/16 06:59:59;;;;;;;;;;;;;;;6.94;62.90;99929.38;5090547;28;19925;-71
2021/04/16 07:02:32;;;;;;;;;;;;;;;7.09;62.89;99927.97;5079506;28;19931;-71
2021/04/16 07:05:01;;;;;;;;;;;;;;;7.21;63.09;99933.25;5076857;28;20408;-72
2021/04/16 07:07:33;;;;;;;;;;;;;;;7.23;62.80;99931.59;5077145;28;20373;-72
2021/04/16 07:10:04;;;;;;;;;;;;;;;7.24;62.58;99933.31;5076632;28;19924;-71
2021/04/16 07:12:33;;;;;;;;;;;;;;;7.20;62.74;99940.84;5076811;28;19931;-70
2021/04/16 07:15:07;;;;;;;;;;;;;;;7.20;62.59;99935.75;5076715;28;20439;-71
2021/04/16 07:17:38;;;;;;;;;;;;;;;7.22;62.63;99932.41;5076721;28;19982;-71
2021/04/16 07:20:08;;;;;;;;;;;;;;;7.24;63.01;99929.91;5076680;28;19931;-70
2021/04/16 07:22:40;;;;;;;;;;;;;;;7.28;62.53;99934.22;5076609;28;19924;-72
2021/04/16 07:25:16;;;;;;;;;;;;;;;7.26;62.36;99934.19;5076532;28;20435;-71
2021/04/16 07:27:46;;;;;;;;;;;;;;;7.26;62.36;99938.41;5076245;28;20431;-71
2021/04/16 07:30:28;;;;;;;;;;;;;;;7.31;61.93;99934.28;5076310;28;19924;-71
2021/04/16 07:33:00;;;;;;;;;;;;;;;7.38;61.43;99936.94;5076396;28;19929;-70
2021/04/16 07:35:32;;;;;;;;;;;;;;;7.48;61.55;99934.53;5076331;28;19925;-71
2021/04/16 07:38:10;;;;;;;;;;;;;;;7.56;61.59;99936.34;5058513;28;19925;-71
2021/04/16 07:40:43;;;;;;;;;;;;;;;7.74;61.19;99931.56;5076144;28;19928;-71
2021/04/16 07:43:14;;;;;;;;;;;;;;;7.96;61.13;99925.09;5076262;28;20007;-70
2021/04/16 07:45:48;;;;;;;;;;;;;;;8.13;60.76;99931.25;5076489;28;19925;-71
2021/04/16 07:48:32;;;;;;;;;;;;;;;8.10;60.81;99932.06;5065466;28;19936;-71
2021/04/16 07:51:03;;;;;;;;;;;;;;;8.14;60.49;99938.03;5071003;28;20283;-71
2021/04/16 07:53:37;;;;;;;;;;;;;;;8.13;59.85;99935.47;5074379;28;19924;-70
2021/04/16 07:56:07;;;;;;;;;;;;;;;8.22;60.04;99940.69;5075911;28;20332;-70
2021/04/16 07:58:38;;;;;;;;;;;;;;;8.32;59.70;99940.00;5076128;28;19925;-71
2021/04/16 08:01:12;;;;;;;;;;;;;;;8.27;59.74;99941.63;5075621;28;20014;-72
2021/04/16 08:03:45;;;;;;;;;;;;;;;8.23;59.47;99943.22;5057742;28;19925;-70
2021/04/16 08:06:24;;;;;;;;;;;;;;;8.35;59.06;99942.59;5075334;28;19924;-69
2021/04/16 08:08:52;;;;;;;;;;;;;;;8.55;59.40;99941.97;5075376;28;20324;-70
2021/04/16 08:11:24;;;;;;;;;;;;;;;8.59;59.10;99942.88;5075241;28;20015;-69
2021/04/16 08:13:53;;;;;;;;;;;;;;;8.58;58.48;99941.16;5056253;28;20437;-69
2021/04/16 08:16:23;;;;;;;;;;;;;;;8.65;58.24;99943.78;5075201;28;20385;-69
2021/04/16 08:19:06;;;;;;;;;;;;;;;8.67;58.51;99942.09;5075084;28;19929;-70
2021/04/16 08:21:40;;;;;;;;;;;;;;;8.68;58.32;99942.97;5047088;28;19929;-70
2021/04/16 08:24:11;;;;;;;;;;;;;;;8.72;58.07;99942.16;5075216;28;19924;-69
2021/04/16 08:26:41;;;;;;;;;;;;;;;8.70;58.12;99938.75;5075150;28;20334;-71
2021/04/16 08:29:13;;;;;;;;;;;;;;;8.50;57.53;99943.59;5074709;28;20345;-71
2021/04/16 08:31:45;;;;;;;;;;;;;;;8.49;57.61;99952.09;5074906;28;20370;-70
2021/04/16 08:34:16;;;;;;;;;;;;;;;8.45;57.68;99952.00;5074879;28;19947;-70
2021/04/16 08:36:45;;;;;;;;;;;;;;;8.46;58.07;99951.19;5074745;28;20037;-70
2021/04/16 08:39:15;;;;;;;;;;;;;;;8.47;57.62;99947.81;5074702;28;20014;-70
2021/04/16 08:41:47;;;;;;;;;;;;;;;8.47;57.59;99953.72;5074614;28;19929;-70
2021/04/16 08:44:15;;;;;;;;;;;;;;;8.46;58.31;99946.09;5074748;28;19950;-70
2021/04/16 08:46:45;;;;;;;;;;;;;;;8.41;58.26;99952.81;5074627;28;19925;-70
2021/04/16 08:49:17;;;;;;;;;;;;;;;8.37;58.31;99961.25;5074531;28;20136;-70
2021/04/16 08:51:47;;;;;;;;;;;;;;;8.25;57.88;99961.94;5074614;28;19974;-70
2021/04/16 08:54:19;;;;;;;;;;;;;;;8.13;58.14;99957.50;5074368;28;19952;-70
2021/04/16 08:56:52;;;;;;;;;;;;;;;8.20;57.78;99962.69;5074566;28;19924;-70
2021/04/16 08:59:25;;;;;;;;;;;;;;;8.24;58.19;99954.25;5074468;28;20301;-70
2021/04/16 09:01:56;;;;;;;;;;;;;;;8.23;58.26;99958.47;5074365;28;19930;-70
2021/04/16 09:04:39;;;;;;;;;;;;;;;8.09;58.74;99955.75;5074478;28;20435;-70
2021/04/16 09:07:18;;;;;;;;;;;;;;;8.04;59.34;99962.47;5072455;28;19925;-70
2021/04/16 09:09:48;;;;;;;;;;;;;;;8.04;59.67;99959.94;5074227;28;19935;-70
2021/04/16 09:12:27;;;;;;;;;;;;;;;8.01;59.33;99964.97;5074146;28;20336;-70
2021/04/16 09:14:56;;;;;;;;;;;;;;;7.92;59.78;99966.53;5074247;28;19932;-70
2021/04/16 09:17:38;;;;;;;;;;;;;;;7.83;59.74;99961.31;5074175;28;19924;-70
2021/04/16 09:20:08;;;;;;;;;;;;;;;7.73;59.56;99972.16;5073545;28;19932;-70
2021/04/16 09:22:43;;;;;;;;;;;;;;;7.63;59.63;99963.53;5073971;28;19928;-70
2021/04/16 09:25:23;;;;;;;;;;;;;;;7.54;60.42;99967.63;5073809;28;19924;-70
2021/04/16 09:27:50;;;;;;;;;;;;;;;7.51;60.32;99970.97;5074094;28;20011;-70
2021/04/16 09:30:28;;;;;;;;;;;;;;;7.53;60.51;99966.78;5073767;28;19978;-69
2021/04/16 09:32:56;;;;;;;;;;;;;;;7.55;60.86;99970.22;5074361;28;20032;-69
2021/04/16 09:35:39;;;;;;;;;;;;;;;7.58;60.85;99970.28;5073851;28;19978;-69
2021/04/16 09:38:17;;;;;;;;;;;;;;;7.71;60.47;99972.16;5072327;28;19928;-69
2021/04/16 09:41:06;;;;;;;;;;;;;;;7.83;60.64;99967.25;5074191;28;19932;-70
2021/04/16 09:43:34;;;;;;;;;;;;;;;7.80;60.50;99966.34;5074200;28;19924;-69
2021/04/16 09:46:23;;;;;;;;;;;;;;;7.87;60.88;99966.47;5055581;28;19925;-70
2021/04/16 09:48:54;;;;;;;;;;;;;;;7.96;60.34;99963.22;5073777;28;20015;-70
2021/04/16 09:51:30;;;;;;;;;;;;;;;8.08;60.42;99963.38;5073748;28;20015;-69
2021/04/16 09:54:12;;;;;;;;;;;;;;;8.09;59.50;99955.75;5073497;28;20374;-70
2021/04/16 09:56:58;;;;;;;;;;;;;;;8.13;59.54;99961.75;5073661;28;19924;-70
2021/04/16 09:59:32;;;;;;;;;;;;;;;8.11;59.40;99961.72;5073423;28;20369;-70
2021/04/16 10:02:21;;;;;;;;;;;;;;;8.09;59.32;99960.84;5073973;28;19932;-69
2021/04/16 10:04:54;;;;;;;;;;;;;;;8.11;58.71;99956.63;5074047;28;20356;-70
2021/04/16 10:07:34;;;;;;;;;;;;;;;8.18;59.43;99954.19;5073872;28;19924;-69
2021/04/16 10:10:05;;;;;;;;;;;;;;;8.27;59.13;99944.16;5073545;28;20004;-69
2021/04/16 10:12:37;;;;;;;;;;;;;;;8.39;59.25;99959.56;5073902;28;19924;-70
2021/04/16 10:15:19;;;;;;;;;;;;;;;8.48;59.70;99957.13;5073876;28;19931;-70
2021/04/16 10:18:21;;;;;;;;;;;;;;;8.59;58.72;99955.59;5073821;28;19925;-69
2021/04/16 10:20:55;;;;;;;;;;;;;;;8.71;58.26;99950.63;5032027;28;19932;-70
2021/04/16 10:23:25;;;;;;;;;;;;;;;8.73;57.99;99961.69;5015543;28;20321;-70
2021/04/16 12:39:50;;;;;;;;;;;;;;;9.83;55.82;99938.88;5075695;28;20329;-70
2021/04/16 12:42:22;;;;;;;;;;;;;;;9.76;55.70;99942.22;5074742;28;19967;-70
2021/04/16 12:44:55;;;;;;;;;;;;;;;9.67;55.64;99943.00;5075608;28;20269;-70
2021/04/16 12:47:27;;;;;;;;;;;;;;;9.65;56.09;99938.72;5075559;28;19931;-70
2021/04/16 12:49:56;;;;;;;;;;;;;;;9.65;55.50;99938.72;5074518;28;20015;-70
2021/04/16 12:52:24;;;;;;;;;;;;;;;9.61;55.46;99937.03;5074854;28;19925;-70
2021/04/16 12:54:53;;;;;;;;;;;;;;;9.60;55.93;99935.34;5074710;28;19930;-70
2021/04/16 12:57:21;;;;;;;;;;;;;;;9.57;55.87;99936.16;5075353;28;20015;-70
2021/04/16 12:59:50;;;;;;;;;;;;;;;9.56;55.65;99933.56;5074261;28;20030;-70
2021/04/16 13:02:23;;;;;;;;;;;;;;;9.55;56.02;99937.00;5074917;28;19978;-70
2021/04/16 13:04:52;;;;;;;;;;;;;;;9.53;55.61;99933.56;5074629;28;20019;-70
2021/04/16 13:07:19;;;;;;;;;;;;;;;9.55;55.16;99931.91;5040552;28;19973;-70
2021/04/16 13:09:47;;;;;;;;;;;;;;;9.58;55.59;99922.56;5075169;28;19978;-70
2021/04/16 13:12:15;;;;;;;;;;;;;;;9.60;55.22;99925.97;5074366;28;19924;-70
2021/04/16 13:14:44;;;;;;;;;;;;;;;9.60;55.36;99920.03;5075396;28;20023;-70
2021/04/16 13:17:13;;;;;;;;;;;;;;;9.62;54.88;99918.34;5057043;28;19928;-70
2021/04/16 13:19:42;;;;;;;;;;;;;;;9.67;55.34;99909.03;5075087;28;19924;-70
2021/04/16 13:22:11;;;;;;;;;;;;;;;9.77;55.22;99911.66;5074563;28;19972;-70
2021/04/16 13:24:39;;;;;;;;;;;;;;;9.78;55.07;99909.97;5074987;28;19931;-70
2021/04/16 13:27:08;;;;;;;;;;;;;;;9.82;55.19;99909.13;5074404;28;19928;-70
2021/04/16 13:29:36;;;;;;;;;;;;;;;9.79;55.80;99915.06;5074819;28;19924;-70
2021/04/16 13:32:06;;;;;;;;;;;;;;;9.78;55.31;99915.06;5073724;28;19931;-70
2021/04/16 13:34:37;;;;;;;;;;;;;;;9.75;55.59;99915.03;5074507;28;20027;-70
2021/04/16 13:37:08;;;;;;;;;;;;;;;9.69;55.53;99915.00;5074411;28;19925;-70
2021/04/16 13:39:35;;;;;;;;;;;;;;;9.63;55.04;99920.91;5074703;28;20373;-70
2021/04/16 13:42:03;;;;;;;;;;;;;;;9.59;55.26;99919.19;5074830;28;19924;-69
2021/04/16 13:44:31;;;;;;;;;;;;;;;9.57;55.49;99925.09;5074362;28;19924;-70
2021/04/16 13:47:00;;;;;;;;;;;;;;;9.52;55.10;99916.56;5074216;28;19931;-70
2021/04/16 13:49:31;;;;;;;;;;;;;;;9.50;54.91;99924.22;5073741;28;20005;-70
2021/04/16 13:51:59;;;;;;;;;;;;;;;9.46;55.86;99917.38;5056399;28;19932;-70
2021/04/16 13:54:28;;;;;;;;;;;;;;;9.45;56.22;99918.22;5073545;28;20015;-70
2021/04/16 13:56:55;;;;;;;;;;;;;;;9.47;56.54;99918.22;5074361;28;20286;-70
2021/04/16 13:59:24;;;;;;;;;;;;;;;9.47;56.24;99908.03;5073720;28;20290;-70
2021/04/16 14:01:53;;;;;;;;;;;;;;;9.44;55.49;99904.63;5074616;28;19978;-70
2021/04/16 14:04:23;;;;;;;;;;;;;;;9.48;55.56;99912.31;5073630;28;19924;-69
2021/04/16 14:06:51;;;;;;;;;;;;;;;9.43;56.09;99915.66;5056507;28;20019;-70
2021/04/16 14:09:20;;;;;;;;;;;;;;;9.43;56.04;99902.06;5073618;28;20416;-70
2021/04/16 14:11:49;;;;;;;;;;;;;;;9.42;55.81;99913.97;5074955;28;19924;-70
2021/04/16 14:14:23;;;;;;;;;;;;;;;9.41;56.45;99909.69;5077865;28;19929;-70
2021/04/16 14:16:52;;;;;;;;;;;;;;;9.39;56.75;99908.84;5077552;28;20438;-70
2021/04/16 14:19:22;;;;;;;;;;;;;;;9.34;56.15;99902.84;5077649;28;19925;-69
2021/04/16 14:21:51;;;;;;;;;;;;;;;9.31;56.69;99905.38;5077847;28;19925;-69
2021/04/16 14:24:19;;;;;;;;;;;;;;;9.32;57.11;99911.31;5042830;28;20013;-70
2021/04/16 14:26:48;;;;;;;;;;;;;;;9.28;57.26;99909.59;5077312;28;19975;-70
2021/04/16 14:29:17;;;;;;;;;;;;;;;9.24;56.43;99900.22;5077347;28;19932;-69
2021/04/16 14:31:45;;;;;;;;;;;;;;;9.24;56.52;99903.63;5077152;28;19924;-70
2021/04/16 14:34:14;;;;;;;;;;;;;;;9.23;56.58;99899.38;5077249;28;19970;-70
2021/04/16 14:36:42;;;;;;;;;;;;;;;9.24;57.08;99908.72;5076938;28;20436;-70
2021/04/16 14:39:10;;;;;;;;;;;;;;;9.26;57.51;99899.38;5077044;28;19932;-70
2021/04/16 14:41:39;;;;;;;;;;;;;;;9.24;57.91;99900.22;5077419;28;19924;-70
2021/04/16 14:44:07;;;;;;;;;;;;;;;9.21;57.71;99911.22;5077360;28;19974;-70
2021/04/16 14:46:36;;;;;;;;;;;;;;;9.20;58.12;99899.34;5077064;28;19925;-70
2021/04/16 14:49:05;;;;;;;;;;;;;;;9.17;57.97;99896.78;5077243;28;20285;-70
2021/04/16 14:51:33;;;;;;;;;;;;;;;9.10;57.70;99902.66;5076896;28;19924;-69
2021/04/16 14:54:02;;;;;;;;;;;;;;;9.06;57.50;99906.03;5058765;28;19964;-70
2021/04/16 14:56:31;;;;;;;;;;;;;;;9.08;58.04;99909.44;5076807;28;20445;-70
2021/04/16 14:59:01;;;;;;;;;;;;;;;9.10;57.99;99906.88;5059200;28;19931;-70
2021/04/16 15:01:30;;;;;;;;;;;;;;;9.11;58.48;99909.47;5076785;28;19925;-70
2021/04/16 15:03:59;;;;;;;;;;;;;;;9.08;58.52;99911.97;5076985;28;19947;-70
2021/04/16 15:06:28;;;;;;;;;;;;;;;9.00;58.30;99905.94;5076561;28;19928;-70
2021/04/16 15:08:58;;;;;;;;;;;;;;;8.99;58.69;99909.34;5076690;28;19986;-70
2021/04/16 15:11:30;;;;;;;;;;;;;;;9.00;58.81;99905.94;5058488;28;19924;-70
2021/04/16 15:13:58;;;;;;;;;;;;;;;9.01;58.82;99907.66;5076982;28;20403;-70
2021/04/16 15:16:26;;;;;;;;;;;;;;;8.95;58.43;99902.50;5076515;28;20036;-70
2021/04/16 15:18:54;;;;;;;;;;;;;;;8.94;58.37;99902.50;5076404;28;19925;-70
2021/04/16 15:21:23;;;;;;;;;;;;;;;8.93;58.96;99901.66;5076327;28;19950;-69
2021/04/16 15:23:51;;;;;;;;;;;;;;;8.95;59.28;99901.69;5075810;28;19968;-70
2021/04/16 15:26:22;;;;;;;;;;;;;;;8.95;59.26;99902.50;5058791;28;19971;-70
2021/04/16 15:28:54;;;;;;;;;;;;;;;8.92;59.33;99902.50;5076224;28;19928;-70
2021/04/16 15:31:23;;;;;;;;;;;;;;;8.92;58.61;99897.41;5041977;28;19925;-70
2021/04/16 15:47:02;;;;;;;;;;;;;;;8.89;58.53;99892.28;5075962;28;19930;-70
2021/04/16 15:49:30;;;;;;;;;;;;;;;8.87;58.80;99888.88;5076192;28;19931;-70
2021/04/16 15:51:58;;;;;;;;;;;;;;;8.85;58.26;99898.19;5075757;28;19925;-70
2021/04/16 15:54:27;;;;;;;;;;;;;;;8.83;58.50;99902.38;5075486;28;19930;-70
2021/04/16 15:57:16;;;;;;;;;;;;;;;8.81;59.04;99904.06;5075603;28;20013;-70
2021/04/16 15:59:43;;;;;;;;;;;;;;;8.81;59.48;99908.31;5075759;28;19924;-70
2021/04/16 16:02:13;;;;;;;;;;;;;;;8.77;59.82;99913.38;5075773;28;19975;-70
2021/04/16 16:04:41;;;;;;;;;;;;;;;8.76;59.56;99910.81;5075697;28;19925;-70
2021/04/16 16:07:10;;;;;;;;;;;;;;;8.72;59.02;99917.56;5040720;28;19971;-70
2021/04/16 16:09:40;;;;;;;;;;;;;;;8.69;59.94;99919.22;5075527;28;19929;-70
2021/04/16 16:12:13;;;;;;;;;;;;;;;8.65;59.68;99920.03;5075224;28;20382;-70